sensor_id;sensor_type;location;lat;lon;timestamp;P1;durP1;ratioP1;P2;durP2;ratioP2
41633;SDS011;37274;51.150;4.808;2022-08-01T00:00:04;0.82;;;0.50;;
41633;SDS011;37274;51.150;4.808;2022-08-01T00:02:35;0.85;;;0.55;;
41633;SDS011;37274;51.150;4.808;2022-08-01T00:05:03;1.13;;;0.88;;
41633;SDS011;37274;51.150;4.808;2022-08-01T00:07:32;0.50;;;0.38;;
41633;SDS011;37274;51.150;4.808;2022-08-01T00:09:59;0.60;;;0.60;;
41633;SDS011;37274;51.150;4.808;2022-08-01T00:12:27;0.40;;;0.40;;
41633;SDS011;37274;51.150;4.808;2022-08-01T00:14:53;0.60;;;0.57;;
41633;SDS011;37274;51.150;4.808;2022-08-01T00:17:20;0.50;;;0.50;;
41633;SDS011;37274;51.150;4.808;2022-08-01T00:19:47;0.65;;;0.35;;
41633;SDS011;37274;51.150;4.808;2022-08-01T00:22:14;0.70;;;0.40;;
41633;SDS011;37274;51.150;4.808;2022-08-01T00:24:41;0.65;;;0.43;;
41633;SDS011;37274;51.150;4.808;2022-08-01T00:27:07;0.88;;;0.50;;
41633;SDS011;37274;51.150;4.808;2022-08-01T00:29:34;0.55;;;0.40;;
41633;SDS011;37274;51.150;4.808;2022-08-01T00:32:21;1.10;;;0.43;;
41633;SDS011;37274;51.150;4.808;2022-08-01T00:34:47;0.98;;;0.70;;
41633;SDS011;37274;51.150;4.808;2022-08-01T00:37:16;0.68;;;0.35;;
41633;SDS011;37274;51.150;4.808;2022-08-01T00:39:43;0.55;;;0.50;;
41633;SDS011;37274;51.150;4.808;2022-08-01T00:42:10;1.90;;;0.60;;
41633;SDS011;37274;51.150;4.808;2022-08-01T00:44:38;0.90;;;0.68;;
41633;SDS011;37274;51.150;4.808;2022-08-01T00:47:05;0.90;;;0.47;;
41633;SDS011;37274;51.150;4.808;2022-08-01T00:49:32;0.85;;;0.55;;
41633;SDS011;37274;51.150;4.808;2022-08-01T00:51:59;1.85;;;0.50;;
41633;SDS011;37274;51.150;4.808;2022-08-01T00:54:27;0.65;;;0.55;;
41633;SDS011;37274;51.150;4.808;2022-08-01T00:56:54;0.50;;;0.50;;
41633;SDS011;37274;51.150;4.808;2022-08-01T00:59:21;1.20;;;0.75;;
41633;SDS011;37274;51.150;4.808;2022-08-01T01:01:51;0.57;;;0.57;;
41633;SDS011;37274;51.150;4.808;2022-08-01T01:04:19;0.60;;;0.50;;
41633;SDS011;37274;51.150;4.808;2022-08-01T01:09:42;0.80;;;0.65;;
41633;SDS011;37274;51.150;4.808;2022-08-01T01:15:02;0.88;;;0.63;;
41633;SDS011;37274;51.150;4.808;2022-08-01T01:17:39;0.97;;;0.50;;
41633;SDS011;37274;51.150;4.808;2022-08-01T01:20:17;0.68;;;0.43;;
41633;SDS011;37274;51.150;4.808;2022-08-01T01:26:09;0.70;;;0.50;;
41633;SDS011;37274;51.150;4.808;2022-08-01T01:28:50;0.80;;;0.50;;
41633;SDS011;37274;51.150;4.808;2022-08-01T01:31:33;2.50;;;0.60;;
41633;SDS011;37274;51.150;4.808;2022-08-01T01:34:04;0.77;;;0.63;;
41633;SDS011;37274;51.150;4.808;2022-08-01T01:36:31;0.60;;;0.60;;
41633;SDS011;37274;51.150;4.808;2022-08-01T01:38:59;0.95;;;0.68;;
41633;SDS011;37274;51.150;4.808;2022-08-01T01:41:26;0.93;;;0.60;;
41633;SDS011;37274;51.150;4.808;2022-08-01T01:43:55;0.75;;;0.63;;
41633;SDS011;37274;51.150;4.808;2022-08-01T01:46:22;1.08;;;0.80;;
41633;SDS011;37274;51.150;4.808;2022-08-01T01:48:53;0.93;;;0.88;;
41633;SDS011;37274;51.150;4.808;2022-08-01T01:51:23;0.93;;;0.65;;
41633;SDS011;37274;51.150;4.808;2022-08-01T01:53:52;1.13;;;0.80;;
41633;SDS011;37274;51.150;4.808;2022-08-01T01:56:20;4.70;;;0.90;;
41633;SDS011;37274;51.150;4.808;2022-08-01T01:58:53;1.25;;;0.52;;
41633;SDS011;37274;51.150;4.808;2022-08-01T02:01:22;1.65;;;0.60;;
41633;SDS011;37274;51.150;4.808;2022-08-01T02:04:10;1.83;;;0.90;;
41633;SDS011;37274;51.150;4.808;2022-08-01T02:06:37;1.00;;;0.70;;
41633;SDS011;37274;51.150;4.808;2022-08-01T02:09:04;1.02;;;0.65;;
41633;SDS011;37274;51.150;4.808;2022-08-01T02:11:31;0.73;;;0.70;;
41633;SDS011;37274;51.150;4.808;2022-08-01T02:14:00;1.00;;;0.90;;
41633;SDS011;37274;51.150;4.808;2022-08-01T02:16:29;0.75;;;0.43;;
41633;SDS011;37274;51.150;4.808;2022-08-01T02:18:58;0.57;;;0.57;;
41633;SDS011;37274;51.150;4.808;2022-08-01T02:21:37;1.30;;;0.65;;
41633;SDS011;37274;51.150;4.808;2022-08-01T02:24:30;1.08;;;0.60;;
41633;SDS011;37274;51.150;4.808;2022-08-01T02:27:14;1.20;;;0.80;;
41633;SDS011;37274;51.150;4.808;2022-08-01T02:29:52;1.50;;;1.20;;
41633;SDS011;37274;51.150;4.808;2022-08-01T02:32:20;0.90;;;0.90;;
41633;SDS011;37274;51.150;4.808;2022-08-01T02:34:51;0.70;;;0.70;;
41633;SDS011;37274;51.150;4.808;2022-08-01T02:37:20;0.65;;;0.63;;
41633;SDS011;37274;51.150;4.808;2022-08-01T02:39:47;1.33;;;0.80;;
41633;SDS011;37274;51.150;4.808;2022-08-01T02:42:14;0.90;;;0.80;;
41633;SDS011;37274;51.150;4.808;2022-08-01T02:44:42;2.42;;;1.33;;
41633;SDS011;37274;51.150;4.808;2022-08-01T02:47:09;1.58;;;0.90;;
41633;SDS011;37274;51.150;4.808;2022-08-01T02:49:41;1.45;;;0.90;;
41633;SDS011;37274;51.150;4.808;2022-08-01T02:52:12;1.13;;;0.93;;
41633;SDS011;37274;51.150;4.808;2022-08-01T02:54:42;1.67;;;1.23;;
41633;SDS011;37274;51.150;4.808;2022-08-01T02:57:10;1.90;;;1.25;;
41633;SDS011;37274;51.150;4.808;2022-08-01T02:59:40;1.48;;;1.13;;
41633;SDS011;37274;51.150;4.808;2022-08-01T03:02:10;2.03;;;1.30;;
41633;SDS011;37274;51.150;4.808;2022-08-01T03:04:38;1.83;;;1.27;;
41633;SDS011;37274;51.150;4.808;2022-08-01T03:07:06;2.83;;;1.60;;
41633;SDS011;37274;51.150;4.808;2022-08-01T03:09:36;1.50;;;1.38;;
41633;SDS011;37274;51.150;4.808;2022-08-01T03:12:06;1.10;;;1.00;;
41633;SDS011;37274;51.150;4.808;2022-08-01T03:14:38;2.17;;;1.50;;
41633;SDS011;37274;51.150;4.808;2022-08-01T03:17:06;1.52;;;1.30;;
41633;SDS011;37274;51.150;4.808;2022-08-01T03:19:35;1.20;;;1.10;;
41633;SDS011;37274;51.150;4.808;2022-08-01T03:22:07;1.25;;;1.15;;
41633;SDS011;37274;51.150;4.808;2022-08-01T03:24:37;1.40;;;1.30;;
41633;SDS011;37274;51.150;4.808;2022-08-01T03:27:05;1.70;;;1.10;;
41633;SDS011;37274;51.150;4.808;2022-08-01T03:29:33;1.17;;;1.00;;
41633;SDS011;37274;51.150;4.808;2022-08-01T03:32:00;1.83;;;1.27;;
41633;SDS011;37274;51.150;4.808;2022-08-01T03:34:29;2.00;;;1.48;;
41633;SDS011;37274;51.150;4.808;2022-08-01T03:36:59;1.38;;;1.27;;
41633;SDS011;37274;51.150;4.808;2022-08-01T03:39:31;1.75;;;1.02;;
41633;SDS011;37274;51.150;4.808;2022-08-01T03:42:20;1.70;;;1.20;;
41633;SDS011;37274;51.150;4.808;2022-08-01T03:44:54;2.42;;;1.50;;
41633;SDS011;37274;51.150;4.808;2022-08-01T03:47:32;1.52;;;1.42;;
41633;SDS011;37274;51.150;4.808;2022-08-01T03:50:09;1.77;;;1.52;;
41633;SDS011;37274;51.150;4.808;2022-08-01T03:52:38;2.83;;;1.27;;
41633;SDS011;37274;51.150;4.808;2022-08-01T03:55:06;3.85;;;2.08;;
41633;SDS011;37274;51.150;4.808;2022-08-01T03:57:33;2.35;;;1.60;;
41633;SDS011;37274;51.150;4.808;2022-08-01T04:00:03;3.45;;;2.20;;
41633;SDS011;37274;51.150;4.808;2022-08-01T04:02:33;1.60;;;1.50;;
41633;SDS011;37274;51.150;4.808;2022-08-01T04:05:01;2.35;;;1.70;;
41633;SDS011;37274;51.150;4.808;2022-08-01T04:07:32;3.00;;;1.60;;
41633;SDS011;37274;51.150;4.808;2022-08-01T04:10:02;4.53;;;1.90;;
41633;SDS011;37274;51.150;4.808;2022-08-01T04:12:30;2.30;;;1.42;;
41633;SDS011;37274;51.150;4.808;2022-08-01T04:14:57;1.42;;;1.30;;
41633;SDS011;37274;51.150;4.808;2022-08-01T04:17:24;2.50;;;1.25;;
41633;SDS011;37274;51.150;4.808;2022-08-01T04:19:51;2.47;;;1.70;;
41633;SDS011;37274;51.150;4.808;2022-08-01T04:22:18;1.95;;;1.50;;
41633;SDS011;37274;51.150;4.808;2022-08-01T04:24:46;2.10;;;1.40;;
41633;SDS011;37274;51.150;4.808;2022-08-01T04:27:28;1.95;;;1.40;;
41633;SDS011;37274;51.150;4.808;2022-08-01T04:30:17;1.80;;;1.42;;
41633;SDS011;37274;51.150;4.808;2022-08-01T04:32:46;1.80;;;1.15;;
41633;SDS011;37274;51.150;4.808;2022-08-01T04:35:14;2.50;;;1.63;;
41633;SDS011;37274;51.150;4.808;2022-08-01T04:38:05;1.98;;;1.60;;
41633;SDS011;37274;51.150;4.808;2022-08-01T04:40:31;3.38;;;1.80;;
41633;SDS011;37274;51.150;4.808;2022-08-01T04:42:58;1.52;;;1.42;;
41633;SDS011;37274;51.150;4.808;2022-08-01T04:45:25;2.15;;;1.30;;
41633;SDS011;37274;51.150;4.808;2022-08-01T04:47:52;2.53;;;1.40;;
41633;SDS011;37274;51.150;4.808;2022-08-01T04:50:19;2.58;;;1.33;;
41633;SDS011;37274;51.150;4.808;2022-08-01T04:52:48;2.38;;;1.27;;
41633;SDS011;37274;51.150;4.808;2022-08-01T04:55:15;2.55;;;1.50;;
41633;SDS011;37274;51.150;4.808;2022-08-01T04:57:43;1.27;;;1.10;;
41633;SDS011;37274;51.150;4.808;2022-08-01T05:00:11;2.20;;;1.40;;
41633;SDS011;37274;51.150;4.808;2022-08-01T05:02:39;1.70;;;1.20;;
41633;SDS011;37274;51.150;4.808;2022-08-01T05:05:06;1.73;;;1.08;;
41633;SDS011;37274;51.150;4.808;2022-08-01T05:07:33;3.45;;;2.33;;
41633;SDS011;37274;51.150;4.808;2022-08-01T05:10:10;4.15;;;2.50;;
41633;SDS011;37274;51.150;4.808;2022-08-01T05:12:37;3.55;;;2.78;;
41633;SDS011;37274;51.150;4.808;2022-08-01T05:15:04;3.53;;;2.67;;
41633;SDS011;37274;51.150;4.808;2022-08-01T05:17:39;2.53;;;2.07;;
41633;SDS011;37274;51.150;4.808;2022-08-01T05:20:09;3.83;;;2.67;;
41633;SDS011;37274;51.150;4.808;2022-08-01T05:22:36;1.95;;;1.77;;
41633;SDS011;37274;51.150;4.808;2022-08-01T05:25:03;3.83;;;2.00;;
41633;SDS011;37274;51.150;4.808;2022-08-01T05:27:34;2.38;;;1.63;;
41633;SDS011;37274;51.150;4.808;2022-08-01T05:30:06;4.07;;;2.30;;
41633;SDS011;37274;51.150;4.808;2022-08-01T05:32:34;3.35;;;2.08;;
41633;SDS011;37274;51.150;4.808;2022-08-01T05:35:01;3.92;;;1.80;;
41633;SDS011;37274;51.150;4.808;2022-08-01T05:37:28;3.15;;;2.03;;
41633;SDS011;37274;51.150;4.808;2022-08-01T05:39:55;4.88;;;1.45;;
41633;SDS011;37274;51.150;4.808;2022-08-01T05:42:21;3.20;;;1.90;;
41633;SDS011;37274;51.150;4.808;2022-08-01T05:44:48;9.75;;;2.58;;
41633;SDS011;37274;51.150;4.808;2022-08-01T05:47:17;2.75;;;1.98;;
41633;SDS011;37274;51.150;4.808;2022-08-01T05:49:44;2.10;;;1.60;;
41633;SDS011;37274;51.150;4.808;2022-08-01T05:52:12;2.10;;;1.20;;
41633;SDS011;37274;51.150;4.808;2022-08-01T05:54:38;4.50;;;1.88;;
41633;SDS011;37274;51.150;4.808;2022-08-01T05:57:05;1.65;;;1.45;;
41633;SDS011;37274;51.150;4.808;2022-08-01T05:59:32;2.67;;;1.50;;
41633;SDS011;37274;51.150;4.808;2022-08-01T06:01:59;3.63;;;1.90;;
41633;SDS011;37274;51.150;4.808;2022-08-01T06:04:26;1.73;;;1.42;;
41633;SDS011;37274;51.150;4.808;2022-08-01T06:06:53;3.50;;;1.83;;
41633;SDS011;37274;51.150;4.808;2022-08-01T06:09:19;2.72;;;1.73;;
41633;SDS011;37274;51.150;4.808;2022-08-01T06:11:46;1.60;;;1.10;;
41633;SDS011;37274;51.150;4.808;2022-08-01T06:14:13;3.00;;;1.70;;
41633;SDS011;37274;51.150;4.808;2022-08-01T06:16:39;4.20;;;1.42;;
41633;SDS011;37274;51.150;4.808;2022-08-01T06:19:06;2.33;;;1.33;;
41633;SDS011;37274;51.150;4.808;2022-08-01T06:21:33;2.35;;;1.52;;
41633;SDS011;37274;51.150;4.808;2022-08-01T06:23:59;3.28;;;1.33;;
41633;SDS011;37274;51.150;4.808;2022-08-01T06:26:26;1.58;;;1.05;;
41633;SDS011;37274;51.150;4.808;2022-08-01T06:28:53;3.30;;;1.50;;
41633;SDS011;37274;51.150;4.808;2022-08-01T06:31:20;1.17;;;1.08;;
41633;SDS011;37274;51.150;4.808;2022-08-01T06:33:46;1.60;;;1.35;;
41633;SDS011;37274;51.150;4.808;2022-08-01T06:36:13;1.75;;;1.50;;
41633;SDS011;37274;51.150;4.808;2022-08-01T06:38:40;3.13;;;1.60;;
41633;SDS011;37274;51.150;4.808;2022-08-01T06:41:06;2.08;;;1.33;;
41633;SDS011;37274;51.150;4.808;2022-08-01T06:43:33;1.58;;;1.20;;
41633;SDS011;37274;51.150;4.808;2022-08-01T06:46:00;3.53;;;0.82;;
41633;SDS011;37274;51.150;4.808;2022-08-01T06:48:27;2.38;;;0.90;;
41633;SDS011;37274;51.150;4.808;2022-08-01T06:50:53;3.17;;;0.85;;
41633;SDS011;37274;51.150;4.808;2022-08-01T06:53:37;1.55;;;0.70;;
41633;SDS011;37274;51.150;4.808;2022-08-01T06:56:05;1.50;;;0.93;;
41633;SDS011;37274;51.150;4.808;2022-08-01T06:58:32;1.42;;;0.90;;
41633;SDS011;37274;51.150;4.808;2022-08-01T07:01:01;0.68;;;0.60;;
41633;SDS011;37274;51.150;4.808;2022-08-01T07:03:30;2.25;;;0.80;;
41633;SDS011;37274;51.150;4.808;2022-08-01T07:08:43;3.70;;;0.60;;
41633;SDS011;37274;51.150;4.808;2022-08-01T07:11:10;1.55;;;0.80;;
41633;SDS011;37274;51.150;4.808;2022-08-01T07:13:37;1.17;;;0.63;;
41633;SDS011;37274;51.150;4.808;2022-08-01T07:16:11;0.60;;;0.50;;
41633;SDS011;37274;51.150;4.808;2022-08-01T07:18:38;2.60;;;0.90;;
41633;SDS011;37274;51.150;4.808;2022-08-01T07:21:05;3.35;;;0.90;;
41633;SDS011;37274;51.150;4.808;2022-08-01T07:23:52;1.92;;;0.90;;
41633;SDS011;37274;51.150;4.808;2022-08-01T07:26:20;3.03;;;1.20;;
41633;SDS011;37274;51.150;4.808;2022-08-01T07:28:47;3.53;;;1.40;;
41633;SDS011;37274;51.150;4.808;2022-08-01T07:31:14;3.40;;;1.33;;
41633;SDS011;37274;51.150;4.808;2022-08-01T07:33:41;4.25;;;1.60;;
41633;SDS011;37274;51.150;4.808;2022-08-01T07:36:14;2.42;;;1.52;;
41633;SDS011;37274;51.150;4.808;2022-08-01T07:38:42;4.28;;;1.73;;
41633;SDS011;37274;51.150;4.808;2022-08-01T07:41:08;3.40;;;1.73;;
41633;SDS011;37274;51.150;4.808;2022-08-01T07:43:35;2.85;;;1.83;;
41633;SDS011;37274;51.150;4.808;2022-08-01T07:46:02;2.47;;;1.70;;
41633;SDS011;37274;51.150;4.808;2022-08-01T07:48:29;3.55;;;1.52;;
41633;SDS011;37274;51.150;4.808;2022-08-01T07:50:56;3.42;;;1.30;;
41633;SDS011;37274;51.150;4.808;2022-08-01T07:53:23;4.60;;;1.60;;
41633;SDS011;37274;51.150;4.808;2022-08-01T07:55:50;4.50;;;1.58;;
41633;SDS011;37274;51.150;4.808;2022-08-01T07:58:16;3.42;;;1.50;;
41633;SDS011;37274;51.150;4.808;2022-08-01T08:00:44;5.20;;;1.45;;
41633;SDS011;37274;51.150;4.808;2022-08-01T08:03:10;3.17;;;1.23;;
41633;SDS011;37274;51.150;4.808;2022-08-01T08:05:37;2.40;;;1.02;;
41633;SDS011;37274;51.150;4.808;2022-08-01T08:08:24;1.63;;;0.98;;
41633;SDS011;37274;51.150;4.808;2022-08-01T08:10:50;1.85;;;1.15;;
41633;SDS011;37274;51.150;4.808;2022-08-01T08:13:20;4.50;;;1.25;;
41633;SDS011;37274;51.150;4.808;2022-08-01T08:15:47;2.58;;;1.23;;
41633;SDS011;37274;51.150;4.808;2022-08-01T08:18:14;4.10;;;1.15;;
41633;SDS011;37274;51.150;4.808;2022-08-01T08:20:42;2.90;;;1.02;;
41633;SDS011;37274;51.150;4.808;2022-08-01T08:23:09;0.90;;;0.90;;
41633;SDS011;37274;51.150;4.808;2022-08-01T08:26:08;0.70;;;0.70;;
41633;SDS011;37274;51.150;4.808;2022-08-01T08:28:36;2.60;;;0.90;;
41633;SDS011;37274;51.150;4.808;2022-08-01T08:31:05;2.38;;;1.20;;
41633;SDS011;37274;51.150;4.808;2022-08-01T08:33:32;1.05;;;0.95;;
41633;SDS011;37274;51.150;4.808;2022-08-01T08:35:58;1.48;;;0.80;;
41633;SDS011;37274;51.150;4.808;2022-08-01T08:38:26;5.07;;;0.93;;
41633;SDS011;37274;51.150;4.808;2022-08-01T08:40:55;3.00;;;1.08;;
41633;SDS011;37274;51.150;4.808;2022-08-01T08:43:24;0.70;;;0.60;;
41633;SDS011;37274;51.150;4.808;2022-08-01T08:45:51;3.10;;;0.75;;
41633;SDS011;37274;51.150;4.808;2022-08-01T08:48:25;2.78;;;0.90;;
41633;SDS011;37274;51.150;4.808;2022-08-01T08:50:53;3.55;;;0.90;;
41633;SDS011;37274;51.150;4.808;2022-08-01T08:53:20;2.65;;;0.80;;
41633;SDS011;37274;51.150;4.808;2022-08-01T08:55:46;0.60;;;0.60;;
41633;SDS011;37274;51.150;4.808;2022-08-01T08:58:21;0.90;;;0.90;;
41633;SDS011;37274;51.150;4.808;2022-08-01T09:00:56;1.23;;;0.57;;
41633;SDS011;37274;51.150;4.808;2022-08-01T09:03:23;2.83;;;0.52;;
41633;SDS011;37274;51.150;4.808;2022-08-01T09:05:50;2.40;;;0.80;;
41633;SDS011;37274;51.150;4.808;2022-08-01T09:08:16;1.35;;;0.55;;
41633;SDS011;37274;51.150;4.808;2022-08-01T09:10:43;2.15;;;0.70;;
41633;SDS011;37274;51.150;4.808;2022-08-01T09:13:11;2.80;;;0.70;;
41633;SDS011;37274;51.150;4.808;2022-08-01T09:15:43;4.63;;;0.68;;
41633;SDS011;37274;51.150;4.808;2022-08-01T09:23:32;2.28;;;0.57;;
41633;SDS011;37274;51.150;4.808;2022-08-01T09:26:00;1.80;;;0.80;;
41633;SDS011;37274;51.150;4.808;2022-08-01T09:28:31;2.15;;;0.50;;
41633;SDS011;37274;51.150;4.808;2022-08-01T09:30:59;2.33;;;0.52;;
41633;SDS011;37274;51.150;4.808;2022-08-01T09:36:20;2.83;;;0.50;;
41633;SDS011;37274;51.150;4.808;2022-08-01T09:38:48;2.47;;;0.50;;
41633;SDS011;37274;51.150;4.808;2022-08-01T09:41:16;0.63;;;0.60;;
41633;SDS011;37274;51.150;4.808;2022-08-01T09:43:48;0.60;;;0.60;;
41633;SDS011;37274;51.150;4.808;2022-08-01T09:46:16;0.73;;;0.70;;
41633;SDS011;37274;51.150;4.808;2022-08-01T09:48:59;3.63;;;1.23;;
41633;SDS011;37274;51.150;4.808;2022-08-01T09:51:37;1.80;;;0.60;;
41633;SDS011;37274;51.150;4.808;2022-08-01T09:54:29;0.60;;;0.60;;
41633;SDS011;37274;51.150;4.808;2022-08-01T09:57:07;1.33;;;0.70;;
41633;SDS011;37274;51.150;4.808;2022-08-01T09:59:39;1.45;;;0.50;;
41633;SDS011;37274;51.150;4.808;2022-08-01T10:04:56;1.38;;;0.73;;
41633;SDS011;37274;51.150;4.808;2022-08-01T10:07:32;6.35;;;2.88;;
41633;SDS011;37274;51.150;4.808;2022-08-01T10:10:12;20.38;;;5.03;;
41633;SDS011;37274;51.150;4.808;2022-08-01T10:12:41;7.30;;;3.30;;
41633;SDS011;37274;51.150;4.808;2022-08-01T10:15:11;13.93;;;3.28;;
41633;SDS011;37274;51.150;4.808;2022-08-01T10:17:46;9.52;;;3.13;;
41633;SDS011;37274;51.150;4.808;2022-08-01T10:20:26;12.60;;;3.38;;
41633;SDS011;37274;51.150;4.808;2022-08-01T10:23:01;10.43;;;3.10;;
41633;SDS011;37274;51.150;4.808;2022-08-01T10:25:35;6.85;;;2.92;;
41633;SDS011;37274;51.150;4.808;2022-08-01T10:28:15;9.35;;;2.60;;
41633;SDS011;37274;51.150;4.808;2022-08-01T10:30:49;7.65;;;2.95;;
41633;SDS011;37274;51.150;4.808;2022-08-01T10:33:18;8.25;;;2.97;;
41633;SDS011;37274;51.150;4.808;2022-08-01T10:36:08;8.68;;;2.75;;
41633;SDS011;37274;51.150;4.808;2022-08-01T10:38:35;7.82;;;2.88;;
41633;SDS011;37274;51.150;4.808;2022-08-01T10:41:03;8.27;;;2.85;;
41633;SDS011;37274;51.150;4.808;2022-08-01T10:43:32;11.77;;;3.92;;
41633;SDS011;37274;51.150;4.808;2022-08-01T10:46:00;15.30;;;2.80;;
41633;SDS011;37274;51.150;4.808;2022-08-01T10:48:29;7.18;;;2.65;;
41633;SDS011;37274;51.150;4.808;2022-08-01T10:51:02;9.73;;;2.38;;
41633;SDS011;37274;51.150;4.808;2022-08-01T10:53:47;4.20;;;1.70;;
41633;SDS011;37274;51.150;4.808;2022-08-01T10:56:14;3.55;;;1.08;;
41633;SDS011;37274;51.150;4.808;2022-08-01T10:58:43;3.42;;;1.23;;
41633;SDS011;37274;51.150;4.808;2022-08-01T11:01:23;1.52;;;1.10;;
41633;SDS011;37274;51.150;4.808;2022-08-01T11:09:00;3.17;;;1.35;;
41633;SDS011;37274;51.150;4.808;2022-08-01T11:11:32;3.58;;;1.40;;
41633;SDS011;37274;51.150;4.808;2022-08-01T11:14:03;1.58;;;0.90;;
41633;SDS011;37274;51.150;4.808;2022-08-01T11:16:38;3.80;;;1.33;;
41633;SDS011;37274;51.150;4.808;2022-08-01T11:19:06;3.55;;;1.20;;
41633;SDS011;37274;51.150;4.808;2022-08-01T11:27:22;3.50;;;1.08;;
41633;SDS011;37274;51.150;4.808;2022-08-01T11:32:48;1.85;;;0.98;;
41633;SDS011;37274;51.150;4.808;2022-08-01T11:35:36;3.97;;;0.82;;
41633;SDS011;37274;51.150;4.808;2022-08-01T11:38:22;2.20;;;1.23;;
41633;SDS011;37274;51.150;4.808;2022-08-01T11:41:10;3.60;;;0.90;;
41633;SDS011;37274;51.150;4.808;2022-08-01T11:52:08;2.70;;;0.70;;
41633;SDS011;37274;51.150;4.808;2022-08-01T11:54:42;2.28;;;1.25;;
41633;SDS011;37274;51.150;4.808;2022-08-01T11:57:14;3.38;;;0.75;;
41633;SDS011;37274;51.150;4.808;2022-08-01T11:59:49;1.95;;;0.80;;
41633;SDS011;37274;51.150;4.808;2022-08-01T12:02:32;1.00;;;0.70;;
41633;SDS011;37274;51.150;4.808;2022-08-01T12:05:02;1.65;;;1.10;;
41633;SDS011;37274;51.150;4.808;2022-08-01T12:07:34;0.98;;;0.60;;
41633;SDS011;37274;51.150;4.808;2022-08-01T12:10:14;0.70;;;0.70;;
41633;SDS011;37274;51.150;4.808;2022-08-01T12:12:43;4.25;;;0.82;;
41633;SDS011;37274;51.150;4.808;2022-08-01T12:15:21;2.45;;;0.93;;
41633;SDS011;37274;51.150;4.808;2022-08-01T12:17:56;1.42;;;0.80;;
41633;SDS011;37274;51.150;4.808;2022-08-01T12:20:27;1.00;;;0.63;;
41633;SDS011;37274;51.150;4.808;2022-08-01T12:23:02;1.95;;;0.90;;
41633;SDS011;37274;51.150;4.808;2022-08-01T12:25:32;2.13;;;0.82;;
41633;SDS011;37274;51.150;4.808;2022-08-01T12:28:00;1.15;;;0.60;;
41633;SDS011;37274;51.150;4.808;2022-08-01T12:30:29;3.17;;;0.70;;
41633;SDS011;37274;51.150;4.808;2022-08-01T12:33:08;1.02;;;0.65;;
41633;SDS011;37274;51.150;4.808;2022-08-01T12:35:37;1.67;;;0.57;;
41633;SDS011;37274;51.150;4.808;2022-08-01T12:38:06;1.23;;;0.68;;
41633;SDS011;37274;51.150;4.808;2022-08-01T12:40:40;1.17;;;0.60;;
41633;SDS011;37274;51.150;4.808;2022-08-01T12:43:14;0.70;;;0.52;;
41633;SDS011;37274;51.150;4.808;2022-08-01T12:45:54;1.15;;;0.50;;
41633;SDS011;37274;51.150;4.808;2022-08-01T12:48:26;2.55;;;0.70;;
41633;SDS011;37274;51.150;4.808;2022-08-01T12:50:53;1.23;;;0.50;;
41633;SDS011;37274;51.150;4.808;2022-08-01T12:53:24;1.50;;;0.65;;
41633;SDS011;37274;51.150;4.808;2022-08-01T12:55:53;0.45;;;0.45;;
41633;SDS011;37274;51.150;4.808;2022-08-01T12:58:29;0.73;;;0.60;;
41633;SDS011;37274;51.150;4.808;2022-08-01T13:01:31;1.05;;;0.65;;
41633;SDS011;37274;51.150;4.808;2022-08-01T13:03:59;2.28;;;0.70;;
41633;SDS011;37274;51.150;4.808;2022-08-01T13:06:28;1.58;;;0.88;;
41633;SDS011;37274;51.150;4.808;2022-08-01T13:08:55;1.13;;;0.73;;
41633;SDS011;37274;51.150;4.808;2022-08-01T13:11:31;1.77;;;0.60;;
41633;SDS011;37274;51.150;4.808;2022-08-01T13:13:57;1.65;;;0.63;;
41633;SDS011;37274;51.150;4.808;2022-08-01T13:16:25;1.15;;;0.60;;
41633;SDS011;37274;51.150;4.808;2022-08-01T13:19:12;0.80;;;0.50;;
41633;SDS011;37274;51.150;4.808;2022-08-01T13:21:39;0.90;;;0.60;;
41633;SDS011;37274;51.150;4.808;2022-08-01T13:24:27;0.57;;;0.45;;
41633;SDS011;37274;51.150;4.808;2022-08-01T13:26:55;0.38;;;0.38;;
41633;SDS011;37274;51.150;4.808;2022-08-01T13:29:34;2.75;;;0.70;;
41633;SDS011;37274;51.150;4.808;2022-08-01T13:35:06;2.15;;;0.60;;
41633;SDS011;37274;51.150;4.808;2022-08-01T13:37:37;1.05;;;0.50;;
41633;SDS011;37274;51.150;4.808;2022-08-01T13:40:06;0.50;;;0.50;;
41633;SDS011;37274;51.150;4.808;2022-08-01T13:42:34;0.52;;;0.43;;
41633;SDS011;37274;51.150;4.808;2022-08-01T13:45:01;0.52;;;0.32;;
41633;SDS011;37274;51.150;4.808;2022-08-01T13:47:40;0.93;;;0.40;;
41633;SDS011;37274;51.150;4.808;2022-08-01T13:50:30;1.38;;;0.70;;
41633;SDS011;37274;51.150;4.808;2022-08-01T13:52:57;0.88;;;0.50;;
41633;SDS011;37274;51.150;4.808;2022-08-01T13:55:23;0.85;;;0.50;;
41633;SDS011;37274;51.150;4.808;2022-08-01T13:57:50;1.08;;;0.40;;
41633;SDS011;37274;51.150;4.808;2022-08-01T14:00:17;0.68;;;0.35;;
41633;SDS011;37274;51.150;4.808;2022-08-01T14:02:43;1.52;;;0.70;;
41633;SDS011;37274;51.150;4.808;2022-08-01T14:05:10;0.63;;;0.55;;
41633;SDS011;37274;51.150;4.808;2022-08-01T14:07:37;0.75;;;0.35;;
41633;SDS011;37274;51.150;4.808;2022-08-01T14:10:06;0.55;;;0.55;;
41633;SDS011;37274;51.150;4.808;2022-08-01T14:12:46;0.50;;;0.50;;
41633;SDS011;37274;51.150;4.808;2022-08-01T14:15:13;0.70;;;0.55;;
41633;SDS011;37274;51.150;4.808;2022-08-01T14:20:27;0.57;;;0.30;;
41633;SDS011;37274;51.150;4.808;2022-08-01T14:22:54;0.60;;;0.50;;
41633;SDS011;37274;51.150;4.808;2022-08-01T14:25:21;0.50;;;0.45;;
41633;SDS011;37274;51.150;4.808;2022-08-01T14:28:08;0.52;;;0.38;;
41633;SDS011;37274;51.150;4.808;2022-08-01T14:30:34;0.88;;;0.73;;
41633;SDS011;37274;51.150;4.808;2022-08-01T14:33:03;0.70;;;0.35;;
41633;SDS011;37274;51.150;4.808;2022-08-01T14:35:30;1.08;;;0.43;;
41633;SDS011;37274;51.150;4.808;2022-08-01T14:38:17;0.52;;;0.40;;
41633;SDS011;37274;51.150;4.808;2022-08-01T14:40:56;0.47;;;0.40;;
41633;SDS011;37274;51.150;4.808;2022-08-01T14:43:23;0.75;;;0.38;;
41633;SDS011;37274;51.150;4.808;2022-08-01T14:45:59;0.63;;;0.60;;
41633;SDS011;37274;51.150;4.808;2022-08-01T14:48:26;0.65;;;0.30;;
41633;SDS011;37274;51.150;4.808;2022-08-01T14:50:55;0.47;;;0.40;;
41633;SDS011;37274;51.150;4.808;2022-08-01T14:53:22;0.57;;;0.40;;
41633;SDS011;37274;51.150;4.808;2022-08-01T14:55:49;0.40;;;0.40;;
41633;SDS011;37274;51.150;4.808;2022-08-01T14:58:16;0.65;;;0.50;;
41633;SDS011;37274;51.150;4.808;2022-08-01T15:00:43;0.85;;;0.38;;
41633;SDS011;37274;51.150;4.808;2022-08-01T15:03:09;0.40;;;0.40;;
41633;SDS011;37274;51.150;4.808;2022-08-01T15:05:36;0.30;;;0.30;;
41633;SDS011;37274;51.150;4.808;2022-08-01T15:08:03;1.73;;;0.63;;
41633;SDS011;37274;51.150;4.808;2022-08-01T15:10:31;0.32;;;0.32;;
41633;SDS011;37274;51.150;4.808;2022-08-01T15:12:58;0.30;;;0.30;;
41633;SDS011;37274;51.150;4.808;2022-08-01T15:15:26;0.65;;;0.50;;
41633;SDS011;37274;51.150;4.808;2022-08-01T15:17:53;1.13;;;0.40;;
41633;SDS011;37274;51.150;4.808;2022-08-01T15:20:20;0.50;;;0.43;;
41633;SDS011;37274;51.150;4.808;2022-08-01T15:22:47;1.45;;;0.30;;
41633;SDS011;37274;51.150;4.808;2022-08-01T15:25:14;1.33;;;0.40;;
41633;SDS011;37274;51.150;4.808;2022-08-01T15:27:41;1.40;;;0.63;;
41633;SDS011;37274;51.150;4.808;2022-08-01T15:30:08;0.50;;;0.40;;
41633;SDS011;37274;51.150;4.808;2022-08-01T15:32:35;0.82;;;0.40;;
41633;SDS011;37274;51.150;4.808;2022-08-01T15:35:02;0.95;;;0.50;;
41633;SDS011;37274;51.150;4.808;2022-08-01T15:37:29;0.63;;;0.40;;
41633;SDS011;37274;51.150;4.808;2022-08-01T15:39:56;0.68;;;0.50;;
41633;SDS011;37274;51.150;4.808;2022-08-01T15:42:23;0.73;;;0.43;;
41633;SDS011;37274;51.150;4.808;2022-08-01T15:44:52;0.63;;;0.50;;
41633;SDS011;37274;51.150;4.808;2022-08-01T15:47:19;6.25;;;0.50;;
41633;SDS011;37274;51.150;4.808;2022-08-01T15:49:47;0.60;;;0.40;;
41633;SDS011;37274;51.150;4.808;2022-08-01T15:52:17;1.58;;;0.85;;
41633;SDS011;37274;51.150;4.808;2022-08-01T15:54:47;0.77;;;0.45;;
41633;SDS011;37274;51.150;4.808;2022-08-01T15:57:14;1.15;;;0.68;;